sensor_id;sensor_type;location;lat;lon;timestamp;temperature;humidity
5779;DHT22;2916;49.798;10.022;2023-05-10T00:01:53;15.00;99.90
5779;DHT22;2916;49.798;10.022;2023-05-10T00:04:20;14.90;99.90
5779;DHT22;2916;49.798;10.022;2023-05-10T00:06:47;14.90;99.90
5779;DHT22;2916;49.798;10.022;2023-05-10T00:09:14;15.00;99.90
5779;DHT22;2916;49.798;10.022;2023-05-10T00:11:43;15.00;99.90
5779;DHT22;2916;49.798;10.022;2023-05-10T00:14:11;14.90;99.90
5779;DHT22;2916;49.798;10.022;2023-05-10T00:16:38;14.90;99.90
5779;DHT22;2916;49.798;10.022;2023-05-10T00:19:05;15.00;99.90
5779;DHT22;2916;49.798;10.022;2023-05-10T00:21:33;14.90;99.90
5779;DHT22;2916;49.798;10.022;2023-05-10T00:24:00;15.00;99.90
5779;DHT22;2916;49.798;10.022;2023-05-10T00:26:27;15.00;99.90
5779;DHT22;2916;49.798;10.022;2023-05-10T00:28:56;14.90;99.90
5779;DHT22;2916;49.798;10.022;2023-05-10T00:31:24;15.00;99.90
5779;DHT22;2916;49.798;10.022;2023-05-10T00:33:51;15.00;99.90
5779;DHT22;2916;49.798;10.022;2023-05-10T00:36:18;15.10;99.90
5779;DHT22;2916;49.798;10.022;2023-05-10T00:38:46;15.00;99.90
5779;DHT22;2916;49.798;10.022;2023-05-10T00:41:13;15.00;99.90
5779;DHT22;2916;49.798;10.022;2023-05-10T00:43:41;15.00;99.90
5779;DHT22;2916;49.798;10.022;2023-05-10T00:46:09;14.90;99.90
5779;DHT22;2916;49.798;10.022;2023-05-10T00:48:37;15.00;99.90
5779;DHT22;2916;49.798;10.022;2023-05-10T00:51:05;15.00;99.90
5779;DHT22;2916;49.798;10.022;2023-05-10T00:53:34;14.90;99.90
5779;DHT22;2916;49.798;10.022;2023-05-10T00:56:02;14.90;99.90
5779;DHT22;2916;49.798;10.022;2023-05-10T00:58:29;14.90;99.90
5779;DHT22;2916;49.798;10.022;2023-05-10T01:00:57;14.80;99.90
5779;DHT22;2916;49.798;10.022;2023-05-10T01:03:26;14.90;99.90
5779;DHT22;2916;49.798;10.022;2023-05-10T01:05:54;14.80;99.90
5779;DHT22;2916;49.798;10.022;2023-05-10T01:08:22;14.80;99.90
5779;DHT22;2916;49.798;10.022;2023-05-10T01:10:49;14.70;99.90
5779;DHT22;2916;49.798;10.022;2023-05-10T01:13:27;14.70;99.90
5779;DHT22;2916;49.798;10.022;2023-05-10T01:16:00;14.70;99.90
5779;DHT22;2916;49.798;10.022;2023-05-10T01:18:30;14.60;99.90
5779;DHT22;2916;49.798;10.022;2023-05-10T01:21:10;14.50;99.90
5779;DHT22;2916;49.798;10.022;2023-05-10T01:27:29;14.50;99.90
5779;DHT22;2916;49.798;10.022;2023-05-10T01:30:35;14.50;99.90
5779;DHT22;2916;49.798;10.022;2023-05-10T01:33:27;14.50;99.90
5779;DHT22;2916;49.798;10.022;2023-05-10T01:36:04;14.50;99.90
5779;DHT22;2916;49.798;10.022;2023-05-10T01:38:41;14.50;99.90
5779;DHT22;2916;49.798;10.022;2023-05-10T01:41:18;14.40;99.90
5779;DHT22;2916;49.798;10.022;2023-05-10T01:44:00;14.50;99.90
5779;DHT22;2916;49.798;10.022;2023-05-10T01:46:35;14.40;99.90
5779;DHT22;2916;49.798;10.022;2023-05-10T01:49:13;14.40;99.90
5779;DHT22;2916;49.798;10.022;2023-05-10T01:51:51;14.40;99.90
5779;DHT22;2916;49.798;10.022;2023-05-10T01:54:22;14.50;99.90
5779;DHT22;2916;49.798;10.022;2023-05-10T01:56:55;14.40;99.90
5779;DHT22;2916;49.798;10.022;2023-05-10T01:59:30;14.40;99.90
5779;DHT22;2916;49.798;10.022;2023-05-10T02:02:06;14.40;99.90
5779;DHT22;2916;49.798;10.022;2023-05-10T02:04:41;14.40;99.90
5779;DHT22;2916;49.798;10.022;2023-05-10T02:07:46;14.50;99.90
5779;DHT22;2916;49.798;10.022;2023-05-10T02:10:24;14.40;99.90
5779;DHT22;2916;49.798;10.022;2023-05-10T02:12:59;14.30;99.90
5779;DHT22;2916;49.798;10.022;2023-05-10T02:15:31;14.40;99.90
5779;DHT22;2916;49.798;10.022;2023-05-10T02:18:02;14.40;99.90
5779;DHT22;2916;49.798;10.022;2023-05-10T02:20:34;14.30;99.90
5779;DHT22;2916;49.798;10.022;2023-05-10T02:23:02;14.30;99.90
5779;DHT22;2916;49.798;10.022;2023-05-10T02:25:31;14.30;99.90
5779;DHT22;2916;49.798;10.022;2023-05-10T02:28:02;14.30;99.90
5779;DHT22;2916;49.798;10.022;2023-05-10T02:30:36;14.30;99.90
5779;DHT22;2916;49.798;10.022;2023-05-10T02:33:05;14.20;99.90
5779;DHT22;2916;49.798;10.022;2023-05-10T02:35:35;14.20;99.90
5779;DHT22;2916;49.798;10.022;2023-05-10T02:38:05;14.20;99.90
5779;DHT22;2916;49.798;10.022;2023-05-10T02:40:33;14.10;99.90
5779;DHT22;2916;49.798;10.022;2023-05-10T02:43:04;14.10;99.90
5779;DHT22;2916;49.798;10.022;2023-05-10T02:45:43;14.00;99.90
5779;DHT22;2916;49.798;10.022;2023-05-10T02:48:16;13.90;99.90
5779;DHT22;2916;49.798;10.022;2023-05-10T02:50:57;13.90;99.90
5779;DHT22;2916;49.798;10.022;2023-05-10T02:53:37;13.90;99.90
5779;DHT22;2916;49.798;10.022;2023-05-10T02:56:24;13.80;99.90
5779;DHT22;2916;49.798;10.022;2023-05-10T02:58:55;13.80;99.90
5779;DHT22;2916;49.798;10.022;2023-05-10T03:01:22;13.70;99.90
5779;DHT22;2916;49.798;10.022;2023-05-10T03:03:50;13.70;99.90
5779;DHT22;2916;49.798;10.022;2023-05-10T03:06:18;13.60;99.90
5779;DHT22;2916;49.798;10.022;2023-05-10T03:08:46;13.60;99.90
5779;DHT22;2916;49.798;10.022;2023-05-10T03:11:27;13.60;99.90
5779;DHT22;2916;49.798;10.022;2023-05-10T03:14:10;13.60;99.90
5779;DHT22;2916;49.798;10.022;2023-05-10T03:16:47;13.50;99.90
5779;DHT22;2916;49.798;10.022;2023-05-10T03:19:26;13.50;99.90
5779;DHT22;2916;49.798;10.022;2023-05-10T03:21:59;13.50;99.90
5779;DHT22;2916;49.798;10.022;2023-05-10T03:24:32;13.50;99.90
5779;DHT22;2916;49.798;10.022;2023-05-10T03:27:02;13.50;99.90
5779;DHT22;2916;49.798;10.022;2023-05-10T03:29:31;13.40;99.90
5779;DHT22;2916;49.798;10.022;2023-05-10T03:31:59;13.30;99.90
5779;DHT22;2916;49.798;10.022;2023-05-10T03:34:30;13.30;99.90
5779;DHT22;2916;49.798;10.022;2023-05-10T03:36:58;13.30;99.90
5779;DHT22;2916;49.798;10.022;2023-05-10T03:39:25;13.30;99.90
5779;DHT22;2916;49.798;10.022;2023-05-10T03:41:53;13.20;99.90
5779;DHT22;2916;49.798;10.022;2023-05-10T03:44:20;13.20;99.90
5779;DHT22;2916;49.798;10.022;2023-05-10T03:46:47;13.20;99.90
5779;DHT22;2916;49.798;10.022;2023-05-10T03:49:14;13.20;99.90
5779;DHT22;2916;49.798;10.022;2023-05-10T03:51:41;13.20;99.90
5779;DHT22;2916;49.798;10.022;2023-05-10T03:54:10;13.10;99.90
5779;DHT22;2916;49.798;10.022;2023-05-10T03:56:37;13.20;99.90
5779;DHT22;2916;49.798;10.022;2023-05-10T03:59:04;13.20;99.90
5779;DHT22;2916;49.798;10.022;2023-05-10T04:01:33;13.10;99.90
5779;DHT22;2916;49.798;10.022;2023-05-10T04:04:00;13.10;99.90
5779;DHT22;2916;49.798;10.022;2023-05-10T04:06:27;13.20;99.90
5779;DHT22;2916;49.798;10.022;2023-05-10T04:08:54;13.10;99.90
5779;DHT22;2916;49.798;10.022;2023-05-10T04:11:23;13.10;99.90
5779;DHT22;2916;49.798;10.022;2023-05-10T04:13:50;13.10;99.90
5779;DHT22;2916;49.798;10.022;2023-05-10T04:16:17;13.10;99.90
5779;DHT22;2916;49.798;10.022;2023-05-10T04:18:44;13.10;99.90
5779;DHT22;2916;49.798;10.022;2023-05-10T04:21:11;13.10;99.90
5779;DHT22;2916;49.798;10.022;2023-05-10T04:23:39;13.10;99.90
5779;DHT22;2916;49.798;10.022;2023-05-10T04:26:06;13.10;99.90
5779;DHT22;2916;49.798;10.022;2023-05-10T04:28:35;13.10;99.90
5779;DHT22;2916;49.798;10.022;2023-05-10T04:31:03;13.10;99.90
5779;DHT22;2916;49.798;10.022;2023-05-10T04:33:31;13.10;99.90
5779;DHT22;2916;49.798;10.022;2023-05-10T04:35:58;13.10;99.90
5779;DHT22;2916;49.798;10.022;2023-05-10T04:38:26;13.10;99.90
5779;DHT22;2916;49.798;10.022;2023-05-10T04:40:53;13.10;99.90
5779;DHT22;2916;49.798;10.022;2023-05-10T04:43:20;13.20;99.90
5779;DHT22;2916;49.798;10.022;2023-05-10T04:45:49;13.20;99.90
5779;DHT22;2916;49.798;10.022;2023-05-10T04:48:16;13.20;99.90
5779;DHT22;2916;49.798;10.022;2023-05-10T04:50:43;13.20;99.90
5779;DHT22;2916;49.798;10.022;2023-05-10T04:53:11;13.20;99.90
5779;DHT22;2916;49.798;10.022;2023-05-10T04:55:38;13.20;99.90
5779;DHT22;2916;49.798;10.022;2023-05-10T04:58:05;13.20;99.90
5779;DHT22;2916;49.798;10.022;2023-05-10T05:00:33;13.30;99.90
5779;DHT22;2916;49.798;10.022;2023-05-10T05:03:02;13.30;99.90
5779;DHT22;2916;49.798;10.022;2023-05-10T05:05:29;13.30;99.90
5779;DHT22;2916;49.798;10.022;2023-05-10T05:07:57;13.30;99.90
5779;DHT22;2916;49.798;10.022;2023-05-10T05:10:24;13.30;99.90
5779;DHT22;2916;49.798;10.022;2023-05-10T05:12:51;13.30;99.90
5779;DHT22;2916;49.798;10.022;2023-05-10T05:15:18;13.40;99.90
5779;DHT22;2916;49.798;10.022;2023-05-10T05:17:46;13.40;99.90
5779;DHT22;2916;49.798;10.022;2023-05-10T05:20:14;13.50;99.90
5779;DHT22;2916;49.798;10.022;2023-05-10T05:22:42;13.50;99.90
5779;DHT22;2916;49.798;10.022;2023-05-10T05:25:09;13.50;99.90
5779;DHT22;2916;49.798;10.022;2023-05-10T05:27:37;13.50;99.90
5779;DHT22;2916;49.798;10.022;2023-05-10T05:30:05;13.50;99.90
5779;DHT22;2916;49.798;10.022;2023-05-10T05:32:33;13.70;99.90
5779;DHT22;2916;49.798;10.022;2023-05-10T05:35:01;13.70;99.90
5779;DHT22;2916;49.798;10.022;2023-05-10T05:37:29;13.70;99.90
5779;DHT22;2916;49.798;10.022;2023-05-10T05:39:56;13.80;99.90
5779;DHT22;2916;49.798;10.022;2023-05-10T05:42:24;13.80;99.90
5779;DHT22;2916;49.798;10.022;2023-05-10T05:44:51;13.90;99.90
5779;DHT22;2916;49.798;10.022;2023-05-10T05:47:18;13.90;99.90
5779;DHT22;2916;49.798;10.022;2023-05-10T05:49:45;14.00;99.90
5779;DHT22;2916;49.798;10.022;2023-05-10T05:52:12;14.10;99.90
5779;DHT22;2916;49.798;10.022;2023-05-10T05:54:41;14.10;99.90
5779;DHT22;2916;49.798;10.022;2023-05-10T05:57:08;14.20;99.90
5779;DHT22;2916;49.798;10.022;2023-05-10T05:59:35;14.10;99.90
5779;DHT22;2916;49.798;10.022;2023-05-10T06:02:07;14.20;99.90
5779;DHT22;2916;49.798;10.022;2023-05-10T06:04:34;14.20;99.90
5779;DHT22;2916;49.798;10.022;2023-05-10T06:07:01;14.20;99.90
5779;DHT22;2916;49.798;10.022;2023-05-10T06:09:28;14.40;99.90
5779;DHT22;2916;49.798;10.022;2023-05-10T06:11:57;14.40;99.90
5779;DHT22;2916;49.798;10.022;2023-05-10T06:14:24;14.50;99.90
5779;DHT22;2916;49.798;10.022;2023-05-10T06:16:51;14.50;99.90
5779;DHT22;2916;49.798;10.022;2023-05-10T06:19:18;14.60;99.90
5779;DHT22;2916;49.798;10.022;2023-05-10T06:21:46;14.70;99.90
5779;DHT22;2916;49.798;10.022;2023-05-10T06:24:13;14.80;99.90
5779;DHT22;2916;49.798;10.022;2023-05-10T06:26:40;14.70;99.90
5779;DHT22;2916;49.798;10.022;2023-05-10T06:29:09;14.80;99.90
5779;DHT22;2916;49.798;10.022;2023-05-10T06:31:37;14.90;99.90
5779;DHT22;2916;49.798;10.022;2023-05-10T06:34:04;15.00;99.90
5779;DHT22;2916;49.798;10.022;2023-05-10T06:36:33;15.00;99.90
5779;DHT22;2916;49.798;10.022;2023-05-10T06:39:00;15.20;99.90
5779;DHT22;2916;49.798;10.022;2023-05-10T06:41:28;15.40;99.90
5779;DHT22;2916;49.798;10.022;2023-05-10T06:43:55;15.40;99.90
5779;DHT22;2916;49.798;10.022;2023-05-10T06:46:24;15.30;99.90
5779;DHT22;2916;49.798;10.022;2023-05-10T06:48:51;15.40;99.90
5779;DHT22;2916;49.798;10.022;2023-05-10T06:51:18;15.20;99.90
5779;DHT22;2916;49.798;10.022;2023-05-10T06:53:46;15.30;99.90
5779;DHT22;2916;49.798;10.022;2023-05-10T06:56:14;15.20;99.90
5779;DHT22;2916;49.798;10.022;2023-05-10T06:58:41;15.20;99.90
5779;DHT22;2916;49.798;10.022;2023-05-10T07:01:08;15.20;99.90
5779;DHT22;2916;49.798;10.022;2023-05-10T07:03:37;15.10;99.90
5779;DHT22;2916;49.798;10.022;2023-05-10T07:06:05;15.20;99.90
5779;DHT22;2916;49.798;10.022;2023-05-10T07:08:33;15.00;99.90
5779;DHT22;2916;49.798;10.022;2023-05-10T07:11:01;15.10;99.90
5779;DHT22;2916;49.798;10.022;2023-05-10T07:13:30;15.20;99.90
5779;DHT22;2916;49.798;10.022;2023-05-10T07:15:58;15.20;99.90
5779;DHT22;2916;49.798;10.022;2023-05-10T07:18:27;15.10;99.90
5779;DHT22;2916;49.798;10.022;2023-05-10T07:20:57;15.20;99.90
5779;DHT22;2916;49.798;10.022;2023-05-10T07:23:24;15.40;99.90
5779;DHT22;2916;49.798;10.022;2023-05-10T07:25:52;15.40;99.90
5779;DHT22;2916;49.798;10.022;2023-05-10T07:28:20;15.50;99.90
5779;DHT22;2916;49.798;10.022;2023-05-10T07:30:47;15.60;99.90
5779;DHT22;2916;49.798;10.022;2023-05-10T07:33:14;15.70;99.90
5779;DHT22;2916;49.798;10.022;2023-05-10T07:35:42;15.70;99.90
5779;DHT22;2916;49.798;10.022;2023-05-10T07:38:12;15.60;99.90
5779;DHT22;2916;49.798;10.022;2023-05-10T07:40:43;15.60;99.90
5779;DHT22;2916;49.798;10.022;2023-05-10T07:43:11;15.50;99.90
5779;DHT22;2916;49.798;10.022;2023-05-10T07:45:38;15.60;99.90
5779;DHT22;2916;49.798;10.022;2023-05-10T07:48:05;15.60;99.90
5779;DHT22;2916;49.798;10.022;2023-05-10T07:50:32;15.70;99.90
5779;DHT22;2916;49.798;10.022;2023-05-10T07:52:59;15.80;99.90
5779;DHT22;2916;49.798;10.022;2023-05-10T07:55:28;15.80;99.90
5779;DHT22;2916;49.798;10.022;2023-05-10T07:57:55;15.80;99.90
5779;DHT22;2916;49.798;10.022;2023-05-10T08:00:22;15.80;99.90
5779;DHT22;2916;49.798;10.022;2023-05-10T08:02:50;16.00;99.90
5779;DHT22;2916;49.798;10.022;2023-05-10T08:05:17;16.00;99.90
5779;DHT22;2916;49.798;10.022;2023-05-10T08:07:44;15.90;99.90
5779;DHT22;2916;49.798;10.022;2023-05-10T08:10:11;15.80;99.90
5779;DHT22;2916;49.798;10.022;2023-05-10T08:12:40;15.80;99.90
5779;DHT22;2916;49.798;10.022;2023-05-10T08:15:08;16.30;99.90
5779;DHT22;2916;49.798;10.022;2023-05-10T08:17:36;16.70;99.90
5779;DHT22;2916;49.798;10.022;2023-05-10T08:20:04;16.70;99.90
5779;DHT22;2916;49.798;10.022;2023-05-10T08:22:33;16.90;99.90
5779;DHT22;2916;49.798;10.022;2023-05-10T08:25:00;16.80;99.90
5779;DHT22;2916;49.798;10.022;2023-05-10T08:27:27;16.80;99.90
5779;DHT22;2916;49.798;10.022;2023-05-10T08:29:56;16.70;99.90
5779;DHT22;2916;49.798;10.022;2023-05-10T08:32:23;17.00;99.90
5779;DHT22;2916;49.798;10.022;2023-05-10T08:34:50;16.90;99.90
5779;DHT22;2916;49.798;10.022;2023-05-10T08:37:17;16.70;99.90
5779;DHT22;2916;49.798;10.022;2023-05-10T08:39:44;16.80;99.90
5779;DHT22;2916;49.798;10.022;2023-05-10T08:42:19;17.20;99.90
5779;DHT22;2916;49.798;10.022;2023-05-10T08:44:50;18.00;99.90
5779;DHT22;2916;49.798;10.022;2023-05-10T08:47:20;18.30;99.90
5779;DHT22;2916;49.798;10.022;2023-05-10T08:49:48;18.30;99.90
5779;DHT22;2916;49.798;10.022;2023-05-10T08:52:17;18.20;99.90
5779;DHT22;2916;49.798;10.022;2023-05-10T08:54:45;18.40;99.90
5779;DHT22;2916;49.798;10.022;2023-05-10T08:57:13;18.30;99.90
5779;DHT22;2916;49.798;10.022;2023-05-10T08:59:40;18.00;99.90
5779;DHT22;2916;49.798;10.022;2023-05-10T09:02:10;17.80;99.90
5779;DHT22;2916;49.798;10.022;2023-05-10T09:04:41;17.70;99.90
5779;DHT22;2916;49.798;10.022;2023-05-10T09:07:08;17.60;99.90
5779;DHT22;2916;49.798;10.022;2023-05-10T09:09:36;17.50;99.90
5779;DHT22;2916;49.798;10.022;2023-05-10T09:12:04;17.50;99.90
5779;DHT22;2916;49.798;10.022;2023-05-10T09:14:34;17.50;99.90
5779;DHT22;2916;49.798;10.022;2023-05-10T09:17:02;17.30;99.90
5779;DHT22;2916;49.798;10.022;2023-05-10T09:19:31;17.20;99.90
5779;DHT22;2916;49.798;10.022;2023-05-10T09:21:59;17.20;99.90
5779;DHT22;2916;49.798;10.022;2023-05-10T09:24:29;16.90;99.90
5779;DHT22;2916;49.798;10.022;2023-05-10T09:26:57;16.80;99.90
5779;DHT22;2916;49.798;10.022;2023-05-10T09:29:25;16.90;99.90
5779;DHT22;2916;49.798;10.022;2023-05-10T09:31:52;17.00;99.90
5779;DHT22;2916;49.798;10.022;2023-05-10T09:34:28;17.10;99.90
5779;DHT22;2916;49.798;10.022;2023-05-10T09:37:00;17.40;99.90
5779;DHT22;2916;49.798;10.022;2023-05-10T09:39:32;17.20;99.90
5779;DHT22;2916;49.798;10.022;2023-05-10T09:42:01;17.30;99.90
5779;DHT22;2916;49.798;10.022;2023-05-10T09:44:30;17.20;99.90
5779;DHT22;2916;49.798;10.022;2023-05-10T09:46:58;17.40;99.90
5779;DHT22;2916;49.798;10.022;2023-05-10T09:49:25;17.50;99.90
5779;DHT22;2916;49.798;10.022;2023-05-10T09:52:05;17.80;99.90
5779;DHT22;2916;49.798;10.022;2023-05-10T09:54:34;17.80;99.90
5779;DHT22;2916;49.798;10.022;2023-05-10T09:57:02;17.90;99.90
5779;DHT22;2916;49.798;10.022;2023-05-10T09:59:29;18.30;99.90
5779;DHT22;2916;49.798;10.022;2023-05-10T10:01:57;18.30;99.90
5779;DHT22;2916;49.798;10.022;2023-05-10T10:04:26;18.40;99.90
5779;DHT22;2916;49.798;10.022;2023-05-10T10:07:00;18.70;99.90
5779;DHT22;2916;49.798;10.022;2023-05-10T10:09:30;19.00;99.90
5779;DHT22;2916;49.798;10.022;2023-05-10T10:11:59;19.30;99.90
5779;DHT22;2916;49.798;10.022;2023-05-10T10:14:27;19.60;99.90
5779;DHT22;2916;49.798;10.022;2023-05-10T10:16:55;19.80;99.90
5779;DHT22;2916;49.798;10.022;2023-05-10T10:19:23;20.10;93.20
5779;DHT22;2916;49.798;10.022;2023-05-10T10:21:50;20.20;93.20
5779;DHT22;2916;49.798;10.022;2023-05-10T10:24:17;20.30;83.00
5779;DHT22;2916;49.798;10.022;2023-05-10T10:26:46;20.60;59.20
5779;DHT22;2916;49.798;10.022;2023-05-10T10:29:21;20.50;76.10
5779;DHT22;2916;49.798;10.022;2023-05-10T10:32:01;20.70;56.80
5779;DHT22;2916;49.798;10.022;2023-05-10T10:34:39;20.50;48.80
5779;DHT22;2916;49.798;10.022;2023-05-10T10:37:06;20.10;36.80
5779;DHT22;2916;49.798;10.022;2023-05-10T10:39:34;20.20;51.30
5779;DHT22;2916;49.798;10.022;2023-05-10T10:42:04;20.50;73.60
5779;DHT22;2916;49.798;10.022;2023-05-10T10:44:37;20.60;48.50
5779;DHT22;2916;49.798;10.022;2023-05-10T10:47:21;20.90;46.30
5779;DHT22;2916;49.798;10.022;2023-05-10T10:50:06;20.70;18.90
5779;DHT22;2916;49.798;10.022;2023-05-10T10:52:35;21.00;49.60
5779;DHT22;2916;49.798;10.022;2023-05-10T10:55:06;20.70;11.30
5779;DHT22;2916;49.798;10.022;2023-05-10T10:57:45;20.50;17.40
5779;DHT22;2916;49.798;10.022;2023-05-10T11:00:35;20.70;19.70
5779;DHT22;2916;49.798;10.022;2023-05-10T11:03:04;20.80;14.00
5779;DHT22;2916;49.798;10.022;2023-05-10T11:05:35;20.60;17.30
5779;DHT22;2916;49.798;10.022;2023-05-10T11:08:12;20.60;6.80
5779;DHT22;2916;49.798;10.022;2023-05-10T11:10:50;20.80;6.50
5779;DHT22;2916;49.798;10.022;2023-05-10T11:13:40;20.70;19.40
5779;DHT22;2916;49.798;10.022;2023-05-10T11:16:14;21.00;5.60
5779;DHT22;2916;49.798;10.022;2023-05-10T11:18:54;21.40;1.00
5779;DHT22;2916;49.798;10.022;2023-05-10T11:21:25;21.40;1.00
5779;DHT22;2916;49.798;10.022;2023-05-10T11:23:53;21.70;1.00
5779;DHT22;2916;49.798;10.022;2023-05-10T11:26:23;21.60;1.00
5779;DHT22;2916;49.798;10.022;2023-05-10T11:28:53;21.60;1.00
5779;DHT22;2916;49.798;10.022;2023-05-10T11:31:22;21.20;1.00
5779;DHT22;2916;49.798;10.022;2023-05-10T11:33:53;21.30;1.00
5779;DHT22;2916;49.798;10.022;2023-05-10T11:36:23;21.40;1.00
5779;DHT22;2916;49.798;10.022;2023-05-10T11:38:52;21.60;1.00
5779;DHT22;2916;49.798;10.022;2023-05-10T11:41:21;21.70;1.00
5779;DHT22;2916;49.798;10.022;2023-05-10T11:43:51;21.70;1.00
5779;DHT22;2916;49.798;10.022;2023-05-10T11:46:23;21.70;1.00
5779;DHT22;2916;49.798;10.022;2023-05-10T11:48:55;21.40;1.00
5779;DHT22;2916;49.798;10.022;2023-05-10T11:51:24;21.70;1.00
5779;DHT22;2916;49.798;10.022;2023-05-10T11:53:54;21.90;1.00
5779;DHT22;2916;49.798;10.022;2023-05-10T11:56:22;21.90;1.00
5779;DHT22;2916;49.798;10.022;2023-05-10T11:58:57;22.00;1.00
5779;DHT22;2916;49.798;10.022;2023-05-10T12:01:26;22.00;1.00
5779;DHT22;2916;49.798;10.022;2023-05-10T12:03:55;21.90;1.00
5779;DHT22;2916;49.798;10.022;2023-05-10T12:06:26;22.00;1.00
5779;DHT22;2916;49.798;10.022;2023-05-10T12:08:55;22.20;1.00
5779;DHT22;2916;49.798;10.022;2023-05-10T12:11:24;22.30;1.00
5779;DHT22;2916;49.798;10.022;2023-05-10T12:13:54;22.10;1.00
5779;DHT22;2916;49.798;10.022;2023-05-10T12:16:24;22.00;1.00
5779;DHT22;2916;49.798;10.022;2023-05-10T12:18:53;21.80;1.00
5779;DHT22;2916;49.798;10.022;2023-05-10T12:21:23;21.80;1.00
5779;DHT22;2916;49.798;10.022;2023-05-10T12:23:52;22.10;1.00
5779;DHT22;2916;49.798;10.022;2023-05-10T12:26:22;21.90;1.00
5779;DHT22;2916;49.798;10.022;2023-05-10T12:28:50;21.20;1.00
5779;DHT22;2916;49.798;10.022;2023-05-10T12:31:18;21.40;1.00
5779;DHT22;2916;49.798;10.022;2023-05-10T12:33:46;21.80;1.00
5779;DHT22;2916;49.798;10.022;2023-05-10T12:36:15;22.00;1.00
5779;DHT22;2916;49.798;10.022;2023-05-10T12:38:45;22.00;1.00
5779;DHT22;2916;49.798;10.022;2023-05-10T12:41:15;21.70;1.00
5779;DHT22;2916;49.798;10.022;2023-05-10T12:43:43;21.90;1.00
5779;DHT22;2916;49.798;10.022;2023-05-10T12:46:13;22.00;1.00
5779;DHT22;2916;49.798;10.022;2023-05-10T12:48:43;22.00;1.00
5779;DHT22;2916;49.798;10.022;2023-05-10T12:51:15;21.40;1.00
5779;DHT22;2916;49.798;10.022;2023-05-10T12:53:44;21.70;1.00
5779;DHT22;2916;49.798;10.022;2023-05-10T12:56:13;21.40;1.00
5779;DHT22;2916;49.798;10.022;2023-05-10T12:58:40;20.90;1.00
5779;DHT22;2916;49.798;10.022;2023-05-10T13:01:13;20.00;1.00
5779;DHT22;2916;49.798;10.022;2023-05-10T13:03:42;19.60;1.00
5779;DHT22;2916;49.798;10.022;2023-05-10T13:06:09;19.00;1.00
5779;DHT22;2916;49.798;10.022;2023-05-10T13:08:39;18.70;1.00
5779;DHT22;2916;49.798;10.022;2023-05-10T13:11:07;18.60;8.40
5779;DHT22;2916;49.798;10.022;2023-05-10T13:13:34;18.30;21.40
5779;DHT22;2916;49.798;10.022;2023-05-10T13:16:01;18.10;53.20
5779;DHT22;2916;49.798;10.022;2023-05-10T13:18:29;18.00;96.70
5779;DHT22;2916;49.798;10.022;2023-05-10T13:20:57;17.80;99.90
5779;DHT22;2916;49.798;10.022;2023-05-10T13:23:24;17.70;99.90
5779;DHT22;2916;49.798;10.022;2023-05-10T13:25:53;17.40;99.90
5779;DHT22;2916;49.798;10.022;2023-05-10T13:28:20;17.30;99.90
5779;DHT22;2916;49.798;10.022;2023-05-10T13:30:47;17.20;99.90
5779;DHT22;2916;49.798;10.022;2023-05-10T13:33:14;16.70;99.90
5779;DHT22;2916;49.798;10.022;2023-05-10T13:35:41;16.70;99.90
5779;DHT22;2916;49.798;10.022;2023-05-10T13:38:10;16.80;99.90
5779;DHT22;2916;49.798;10.022;2023-05-10T13:40:38;16.70;99.90
5779;DHT22;2916;49.798;10.022;2023-05-10T13:43:05;16.80;99.90
5779;DHT22;2916;49.798;10.022;2023-05-10T13:45:32;16.80;99.90
5779;DHT22;2916;49.798;10.022;2023-05-10T13:47:59;16.60;99.90
5779;DHT22;2916;49.798;10.022;2023-05-10T13:50:27;16.60;99.90
5779;DHT22;2916;49.798;10.022;2023-05-10T13:52:54;16.70;99.90
5779;DHT22;2916;49.798;10.022;2023-05-10T13:55:23;16.70;99.90
5779;DHT22;2916;49.798;10.022;2023-05-10T13:57:50;16.70;99.90
5779;DHT22;2916;49.798;10.022;2023-05-10T14:00:17;16.60;99.90
5779;DHT22;2916;49.798;10.022;2023-05-10T14:02:45;16.80;99.90
5779;DHT22;2916;49.798;10.022;2023-05-10T14:05:12;16.80;99.90
5779;DHT22;2916;49.798;10.022;2023-05-10T14:07:39;16.80;99.90
5779;DHT22;2916;49.798;10.022;2023-05-10T14:10:07;16.80;99.90
5779;DHT22;2916;49.798;10.022;2023-05-10T14:12:36;16.70;99.90
5779;DHT22;2916;49.798;10.022;2023-05-10T14:15:04;16.70;99.90
5779;DHT22;2916;49.798;10.022;2023-05-10T14:17:32;16.80;99.90
5779;DHT22;2916;49.798;10.022;2023-05-10T14:19:59;16.70;99.90
5779;DHT22;2916;49.798;10.022;2023-05-10T14:22:26;16.70;99.90
5779;DHT22;2916;49.798;10.022;2023-05-10T14:24:53;16.60;99.90
5779;DHT22;2916;49.798;10.022;2023-05-10T14:27:20;16.50;99.90
5779;DHT22;2916;49.798;10.022;2023-05-10T14:29:50;16.50;99.90
5779;DHT22;2916;49.798;10.022;2023-05-10T14:32:17;16.50;99.90
5779;DHT22;2916;49.798;10.022;2023-05-10T14:34:44;16.40;99.90
5779;DHT22;2916;49.798;10.022;2023-05-10T14:37:13;16.40;99.90
5779;DHT22;2916;49.798;10.022;2023-05-10T14:39:41;16.40;99.90
5779;DHT22;2916;49.798;10.022;2023-05-10T14:42:09;16.50;99.90
5779;DHT22;2916;49.798;10.022;2023-05-10T14:44:36;16.40;99.90
5779;DHT22;2916;49.798;10.022;2023-05-10T14:47:05;16.40;99.90
5779;DHT22;2916;49.798;10.022;2023-05-10T14:49:40;16.30;99.90
5779;DHT22;2916;49.798;10.022;2023-05-10T14:52:17;16.30;99.90
5779;DHT22;2916;49.798;10.022;2023-05-10T14:54:47;16.40;99.90
5779;DHT22;2916;49.798;10.022;2023-05-10T14:57:15;16.40;99.90
5779;DHT22;2916;49.798;10.022;2023-05-10T14:59:42;16.50;99.90
5779;DHT22;2916;49.798;10.022;2023-05-10T15:02:10;16.40;99.90
5779;DHT22;2916;49.798;10.022;2023-05-10T15:04:39;16.50;99.90
5779;DHT22;2916;49.798;10.022;2023-05-10T15:07:06;16.50;99.90
5779;DHT22;2916;49.798;10.022;2023-05-10T15:09:33;16.60;99.90
5779;DHT22;2916;49.798;10.022;2023-05-10T15:12:00;16.60;99.90
5779;DHT22;2916;49.798;10.022;2023-05-10T15:14:27;16.60;99.90
5779;DHT22;2916;49.798;10.022;2023-05-10T15:16:55;16.60;99.90
5779;DHT22;2916;49.798;10.022;2023-05-10T15:19:24;16.70;99.90
5779;DHT22;2916;49.798;10.022;2023-05-10T15:21:51;16.70;99.90
5779;DHT22;2916;49.798;10.022;2023-05-10T15:24:19;16.60;99.90
5779;DHT22;2916;49.798;10.022;2023-05-10T15:26:46;16.60;99.90
5779;DHT22;2916;49.798;10.022;2023-05-10T15:29:13;16.70;99.90
5779;DHT22;2916;49.798;10.022;2023-05-10T15:31:45;16.70;99.90
5779;DHT22;2916;49.798;10.022;2023-05-10T15:34:12;16.70;99.90
5779;DHT22;2916;49.798;10.022;2023-05-10T15:36:41;16.80;99.90
5779;DHT22;2916;49.798;10.022;2023-05-10T15:39:09;16.80;99.90
5779;DHT22;2916;49.798;10.022;2023-05-10T15:41:36;16.80;99.90
5779;DHT22;2916;49.798;10.022;2023-05-10T15:44:09;16.80;99.90
5779;DHT22;2916;49.798;10.022;2023-05-10T15:46:38;16.80;99.90
5779;DHT22;2916;49.798;10.022;2023-05-10T15:49:12;16.60;99.90
5779;DHT22;2916;49.798;10.022;2023-05-10T15:51:41;16.70;99.90
5779;DHT22;2916;49.798;10.022;2023-05-10T15:54:08;16.70;99.90
5779;DHT22;2916;49.798;10.022;2023-05-10T15:56:35;16.60;99.90
5779;DHT22;2916;49.798;10.022;2023-05-10T15:59:03;16.70;99.90
5779;DHT22;2916;49.798;10.022;2023-05-10T16:01:33;16.80;99.90
5779;DHT22;2916;49.798;10.022;2023-05-10T16:04:00;16.80;99.90
5779;DHT22;2916;49.798;10.022;2023-05-10T16:06:27;16.80;99.90